createdAt,value
2023-04-19T04:34:03.416Z,3.70
2023-04-19T04:37:06.960Z,4.32
2023-04-19T04:40:10.790Z,4.69
2023-04-19T04:43:13.470Z,5.01
2023-04-19T04:46:16.049Z,5.13
2023-04-19T04:49:19.897Z,5.47
2023-04-19T04:52:22.349Z,5.38
2023-04-19T04:55:25.049Z,5.54
2023-04-19T04:58:27.526Z,5.76
2023-04-19T05:01:30.046Z,5.70
2023-04-19T05:04:34.000Z,5.88
2023-04-19T05:07:36.488Z,6.16
2023-04-19T05:10:38.973Z,6.11
2023-04-19T05:13:41.461Z,6.21
2023-04-19T05:16:43.977Z,6.32
2023-04-19T05:19:47.845Z,6.37
2023-04-19T05:22:50.345Z,6.54
2023-04-19T05:25:52.840Z,6.78
2023-04-19T05:28:56.231Z,6.75
2023-04-19T05:31:58.755Z,6.79
2023-04-19T05:35:02.642Z,6.80
2023-04-19T05:38:05.142Z,6.97
2023-04-19T05:41:07.671Z,7.06
2023-04-19T05:44:11.481Z,6.87
2023-04-19T05:47:13.944Z,6.73
2023-04-19T05:50:20.503Z,6.79
2023-04-19T05:53:23.127Z,7.11
2023-04-19T05:56:25.594Z,6.72
2023-04-19T05:59:28.432Z,6.59
2023-04-19T06:02:31.081Z,6.69
2023-04-19T06:05:35.062Z,6.44
2023-04-19T06:08:37.561Z,6.62
2023-04-19T06:11:50.147Z,6.45
2023-04-19T06:14:53.826Z,6.74
2023-04-19T06:17:58.054Z,6.69
2023-04-19T06:21:03.613Z,6.81
2023-04-19T06:24:08.038Z,6.97
2023-04-19T06:27:10.516Z,6.96
2023-04-19T06:30:16.755Z,7.27
2023-04-19T06:33:19.244Z,7.22
2023-04-19T06:36:23.184Z,7.24
2023-04-19T06:39:25.692Z,7.56
2023-04-19T06:42:29.584Z,7.70
2023-04-19T06:45:32.069Z,7.70
2023-04-19T06:48:35.368Z,7.84
2023-04-19T06:51:40.123Z,7.97
2023-04-19T06:54:42.692Z,8.02
2023-04-19T06:57:45.226Z,8.14
2023-04-19T07:00:47.741Z,7.95
2023-04-19T07:03:50.344Z,8.11
2023-04-19T07:06:54.280Z,8.36
2023-04-19T07:09:56.767Z,8.47
2023-04-19T07:12:59.246Z,8.53
2023-04-19T07:16:05.476Z,8.57
2023-04-19T07:19:08.141Z,9.00
2023-04-19T07:22:13.070Z,8.93
2023-04-19T07:25:17.375Z,9.28
2023-04-19T07:28:20.075Z,9.03
2023-04-19T07:31:22.547Z,9.11
2023-04-19T07:34:25.022Z,9.02
2023-04-19T07:37:29.020Z,9.23
2023-04-19T07:40:31.476Z,9.61
2023-04-19T07:43:33.973Z,9.53
2023-04-19T07:46:36.534Z,9.61
2023-04-19T07:49:39.048Z,9.36
2023-04-19T07:52:42.920Z,9.47
2023-04-19T07:55:45.659Z,9.39
2023-04-19T07:58:56.448Z,9.43
2023-04-19T08:02:08.159Z,9.56
2023-04-19T08:05:11.205Z,9.53
2023-04-19T08:08:15.052Z,9.57
2023-04-19T08:11:17.533Z,9.66
2023-04-19T08:14:32.326Z,10.22
2023-04-19T08:17:42.568Z,9.34
2023-04-19T08:20:46.937Z,8.96
2023-04-19T08:23:52.717Z,9.07
2023-04-19T08:26:58.799Z,8.97
2023-04-19T08:30:02.577Z,8.86
2023-04-19T08:33:05.147Z,9.50
2023-04-19T08:36:08.629Z,9.25
2023-04-19T08:39:24.901Z,10.20
2023-04-19T08:42:36.919Z,10.22
2023-04-19T08:45:40.383Z,10.68
2023-04-19T08:48:46.284Z,10.65
2023-04-19T08:51:50.164Z,10.35
2023-04-19T08:54:55.875Z,9.32
2023-04-19T08:57:58.984Z,9.23
2023-04-19T09:01:02.696Z,8.85
2023-04-19T09:04:31.564Z,8.95
2023-04-19T09:07:30.059Z,9.21
2023-04-19T09:10:34.062Z,9.21
2023-04-19T09:13:38.753Z,8.75
2023-04-19T09:16:41.607Z,8.70
2023-04-19T09:19:47.063Z,9.34
2023-04-19T09:23:06.004Z,9.76
2023-04-19T09:26:21.903Z,9.63
2023-04-19T09:29:26.954Z,9.34
2023-04-19T09:32:30.524Z,9.57
2023-04-19T09:35:43.804Z,9.89
2023-04-19T09:38:50.709Z,10.37
2023-04-19T09:41:56.619Z,10.60
2023-04-19T09:48:07.423Z,9.42
2023-04-19T09:51:13.786Z,9.73
2023-04-19T09:54:18.547Z,10.30
2023-04-19T09:57:22.405Z,10.11
2023-04-19T10:00:25.086Z,10.34
2023-04-19T10:03:30.318Z,10.53
2023-04-19T10:06:51.796Z,10.43
2023-04-19T10:10:08.123Z,9.97
2023-04-19T10:13:25.667Z,9.88
2023-04-19T10:16:31.606Z,10.93
2023-04-19T10:19:37.262Z,11.12
2023-04-19T10:22:40.143Z,11.66
2023-04-19T10:25:47.610Z,11.70
2023-04-19T10:28:51.561Z,11.14
2023-04-19T10:31:54.197Z,10.77
2023-04-19T10:35:03.789Z,11.05
2023-04-19T10:38:08.657Z,11.04
2023-04-19T10:41:17.491Z,11.13
2023-04-19T10:44:21.964Z,10.75
2023-04-19T10:47:42.327Z,11.16
2023-04-19T10:51:00.313Z,11.40
2023-04-19T10:54:04.372Z,11.72
2023-04-19T10:57:08.816Z,11.93
2023-04-19T11:00:21.346Z,11.30
2023-04-19T11:03:54.296Z,12.14
2023-04-19T11:07:02.685Z,11.88
2023-04-19T11:10:06.636Z,12.18
2023-04-19T11:13:09.182Z,12.35
2023-04-19T11:16:13.142Z,11.58
2023-04-19T11:19:16.576Z,10.47
2023-04-19T11:22:19.388Z,10.99
2023-04-19T11:25:23.162Z,11.17
2023-04-19T11:28:25.758Z,11.26
2023-04-19T11:31:33.480Z,11.97
2023-04-19T11:34:39.676Z,12.44
2023-04-19T11:37:42.525Z,11.85
2023-04-19T11:40:45.101Z,11.64
2023-04-19T11:43:48.452Z,11.64
2023-04-19T11:47:05.149Z,10.60
2023-04-19T11:50:31.907Z,10.91
2023-04-19T11:53:34.412Z,11.55
2023-04-19T11:56:36.912Z,11.89
2023-04-19T11:59:40.624Z,11.39
2023-04-19T12:02:45.883Z,10.82
2023-04-19T12:05:54.194Z,10.74
2023-04-19T12:08:57.753Z,11.79
2023-04-19T12:12:00.514Z,11.91
2023-04-19T12:15:02.995Z,11.57
2023-04-19T12:18:06.845Z,10.48
2023-04-19T12:21:09.734Z,10.00
2023-04-19T12:24:16.199Z,9.90
2023-04-19T12:27:19.119Z,10.55
2023-04-19T12:30:21.597Z,10.78
2023-04-19T12:33:25.632Z,10.50
2023-04-19T12:36:28.429Z,10.13
2023-04-19T12:39:31.199Z,10.67
2023-04-19T12:42:33.947Z,11.71
2023-04-19T12:45:36.699Z,11.68
2023-04-19T12:48:40.723Z,10.88
2023-04-19T12:51:43.558Z,10.99
2023-04-19T12:54:46.017Z,10.99
2023-04-19T12:57:48.761Z,10.57
2023-04-19T13:00:51.967Z,10.42
2023-04-19T13:03:58.226Z,10.51
2023-04-19T13:07:01.915Z,10.23
2023-04-19T13:10:04.905Z,10.69
2023-04-19T13:13:07.487Z,10.88
2023-04-19T13:16:10.078Z,10.42
2023-04-19T13:19:13.974Z,10.91
2023-04-19T13:22:16.552Z,10.90
2023-04-19T13:25:19.034Z,10.47
2023-04-19T13:28:21.486Z,10.23
2023-04-19T13:31:24.058Z,10.11
2023-04-19T13:34:27.906Z,9.82
2023-04-19T13:37:30.599Z,10.10
2023-04-19T13:40:33.099Z,9.74
2023-04-19T13:43:35.607Z,9.75
2023-04-19T13:46:38.084Z,9.66
2023-04-19T13:49:41.951Z,9.23
2023-04-19T13:52:44.519Z,8.76
2023-04-19T13:55:47.175Z,8.49
2023-04-19T13:58:49.658Z,8.30
2023-04-19T14:01:52.267Z,8.04
2023-04-19T14:04:58.867Z,8.02
2023-04-19T14:08:01.319Z,7.23
2023-04-19T14:11:03.943Z,6.89
2023-04-19T14:14:06.521Z,6.56
2023-04-19T14:17:09.054Z,6.50
2023-04-19T14:20:13.611Z,6.35
2023-04-19T14:23:16.119Z,6.13
2023-04-19T14:26:18.596Z,6.09
2023-04-19T14:29:21.153Z,6.16
2023-04-19T14:32:26.633Z,6.17
2023-04-19T14:35:31.720Z,6.14
2023-04-19T14:38:34.261Z,6.09
2023-04-19T14:41:36.772Z,5.99
2023-04-19T14:44:39.281Z,5.98
2023-04-19T14:47:41.796Z,5.95
2023-04-19T14:50:46.556Z,5.88
2023-04-19T14:53:49.030Z,5.88
2023-04-19T14:56:52.732Z,5.89
2023-04-19T14:59:58.034Z,6.08
2023-04-19T15:03:01.267Z,6.13
2023-04-19T15:06:05.518Z,6.21
2023-04-19T15:09:08.037Z,6.18
2023-04-19T15:12:10.512Z,6.12
2023-04-19T15:15:13.047Z,6.03
2023-04-19T15:18:16.191Z,6.02
2023-04-19T15:21:24.367Z,5.92
2023-04-19T15:24:27.211Z,5.94
2023-04-19T15:27:29.781Z,5.93
2023-04-19T15:30:34.141Z,5.99
2023-04-19T15:33:38.099Z,6.07
2023-04-19T15:36:41.960Z,5.98
2023-04-19T15:39:44.584Z,5.96
2023-04-19T15:42:47.082Z,5.86
2023-04-19T15:45:49.639Z,5.83
2023-04-19T15:48:52.278Z,5.81
2023-04-19T15:51:56.090Z,5.74
2023-04-19T15:54:58.654Z,5.67
2023-04-19T15:58:01.296Z,5.61
2023-04-19T16:01:03.820Z,5.59
2023-04-19T16:04:06.577Z,5.61
2023-04-19T16:07:10.585Z,5.59
2023-04-19T16:10:14.624Z,5.63
2023-04-19T16:13:17.670Z,5.64
2023-04-19T16:16:20.293Z,5.67
2023-04-19T16:19:23.476Z,5.66
2023-04-19T16:22:27.462Z,5.66
2023-04-19T16:25:30.266Z,5.66
2023-04-19T16:28:32.734Z,5.58
2023-04-19T16:31:35.644Z,5.52
2023-04-19T16:34:38.180Z,5.43
2023-04-19T16:37:42.072Z,5.39
2023-04-19T16:40:47.697Z,5.40
2023-04-19T16:43:50.260Z,5.38
2023-04-19T16:46:52.800Z,5.35
2023-04-19T16:49:56.208Z,5.31
2023-04-19T16:53:00.203Z,5.33
2023-04-19T16:56:03.595Z,5.32
2023-04-19T16:59:06.216Z,5.30
2023-04-19T17:02:10.938Z,5.37
2023-04-19T17:05:13.804Z,5.36
2023-04-19T17:08:17.689Z,5.37
2023-04-19T17:11:20.296Z,5.34
2023-04-19T17:14:22.831Z,5.32
2023-04-19T17:17:25.407Z,5.30
2023-04-19T17:20:27.913Z,5.30
2023-04-19T17:23:31.724Z,5.28
2023-04-19T17:26:34.201Z,5.30
2023-04-19T17:29:36.682Z,5.28
2023-04-19T17:32:39.209Z,5.28
2023-04-19T17:35:41.740Z,5.25
2023-04-19T17:38:45.710Z,5.27
2023-04-19T17:41:48.483Z,5.25
2023-04-19T17:44:51.335Z,5.24
2023-04-19T17:47:56.263Z,5.25
2023-04-19T17:50:58.907Z,5.26
2023-04-19T17:54:03.058Z,5.26
2023-04-19T17:57:05.809Z,5.26
2023-04-19T18:00:11.793Z,5.28
2023-04-19T18:03:14.495Z,5.27
2023-04-19T18:06:18.603Z,5.32
2023-04-19T18:09:22.430Z,5.30
2023-04-19T18:12:25.004Z,5.32
2023-04-19T18:15:27.621Z,5.33
2023-04-19T18:18:30.384Z,5.33
2023-04-19T18:21:33.909Z,5.34
2023-04-19T18:24:37.717Z,5.35
2023-04-19T18:27:40.319Z,5.36
2023-04-19T18:30:42.806Z,5.41
2023-04-19T18:33:45.284Z,5.41
2023-04-19T18:36:47.838Z,5.44
2023-04-19T18:39:52.699Z,5.45
2023-04-19T18:42:55.324Z,5.48
2023-04-19T18:45:57.867Z,5.51
2023-04-19T18:49:01.130Z,5.54
2023-04-19T18:52:03.662Z,5.53
2023-04-19T18:55:08.596Z,5.53
2023-04-19T18:58:11.995Z,5.54
2023-04-19T19:01:14.515Z,5.59
2023-04-19T19:11:06.694Z,5.58
2023-04-19T19:13:54.929Z,5.62
2023-04-19T19:16:57.548Z,5.58
2023-04-19T19:20:00.231Z,5.60
2023-04-19T19:23:03.257Z,5.65
2023-04-19T19:26:07.184Z,5.63
2023-04-19T19:29:09.699Z,5.63
2023-04-19T19:32:12.297Z,5.61
